Time;durP1;ratioP1;P1;durP2;ratioP2;P2;SDS_P1;SDS_P2;PMS_P1;PMS_P2;Temp;Humidity;BMP_temperature;BMP_pressure;BME280_temperature;BME280_humidity;BME280_pressure;Samples;Min_cycle;Max_cycle;Signal;HPM_P1;HPM_P2
2023/04/27 00:01:26;;;;;;;15.40;9.10;;;;;;;1.20;69.76;99927.76;220674;1256;141977;-73
2023/04/27 00:06:31;;;;;;;16.10;6.90;;;;;;;1.16;69.98;99932.12;218885;1257;139960;-71
2023/04/27 00:11:34;;;;;;;14.50;8.70;;;;;;;1.14;70.49;99932.80;220394;1256;140034;-72
2023/04/27 00:16:36;;;;;;;16.70;8.90;;;;;;;1.16;70.46;99934.52;220229;1257;140016;-70
2023/04/27 00:21:39;;;;;;;21.40;8.60;;;;;;;1.22;70.81;99929.73;219107;1260;139893;-68
2023/04/27 00:26:43;;;;;;;21.30;11.40;;;;;;;1.23;70.15;99935.33;218224;1257;139838;-70
2023/04/27 00:31:47;;;;;;;17.80;10.10;;;;;;;1.23;70.62;99940.22;218356;1257;140455;-74
2023/04/27 00:36:50;;;;;;;16.40;9.30;;;;;;;1.19;70.77;99937.59;218576;1257;143118;-69
2023/04/27 00:41:54;;;;;;;16.50;10.20;;;;;;;1.16;70.73;99941.86;217990;1259;140796;-67
2023/04/27 00:46:58;;;;;;;15.80;10.90;;;;;;;1.14;71.01;99943.21;217972;1257;140867;-68
2023/04/27 00:52:01;;;;;;;20.80;11.60;;;;;;;1.06;70.54;99944.77;217815;1257;140790;-70
2023/04/27 00:57:05;;;;;;;21.50;11.40;;;;;;;0.99;70.77;99947.44;217940;1260;140977;-77
2023/04/27 01:02:11;;;;;;;24.40;11.70;;;;;;;0.89;70.79;99947.80;218285;1257;141051;-70
2023/04/27 01:07:14;;;;;;;22.50;12.60;;;;;;;0.81;70.85;99943.98;218637;1259;141022;-69
2023/04/27 01:12:17;;;;;;;18.10;10.40;;;;;;;0.76;71.28;99943.81;217934;1259;139773;-68
2023/04/27 01:17:20;;;;;;;15.60;10.30;;;;;;;0.72;71.41;99952.51;218521;1256;139871;-67
2023/04/27 01:22:22;;;;;;;19.50;12.20;;;;;;;0.64;71.57;99949.86;217842;1257;140150;-68
2023/04/27 01:27:25;;;;;;;26.70;14.20;;;;;;;0.56;71.59;99948.67;217158;1260;931939;-65
2023/04/27 01:32:27;;;;;;;25.40;14.80;;;;;;;0.50;71.77;99949.52;218620;1257;140750;-66
2023/04/27 01:37:30;;;;;;;27.10;14.80;;;;;;;0.43;72.11;99949.22;217892;1260;141030;-70
2023/04/27 01:42:32;;;;;;;23.90;15.40;;;;;;;0.40;72.04;99951.80;217674;1260;140310;-70
2023/04/27 01:47:35;;;;;;;24.40;16.80;;;;;;;0.36;72.03;99945.38;218697;1260;140182;-70
2023/04/27 01:52:39;;;;;;;27.50;14.40;;;;;;;0.30;71.91;99949.85;220427;1257;139574;-70
2023/04/27 01:57:42;;;;;;;29.40;17.10;;;;;;;0.27;72.07;99953.36;218840;1257;141037;-68
2023/04/27 02:02:45;;;;;;;33.10;17.70;;;;;;;0.26;72.65;99958.70;220394;1257;140011;-69
2023/04/27 02:07:49;;;;;;;25.90;14.70;;;;;;;0.24;72.58;99959.20;219081;1259;140194;-67
2023/04/27 02:12:52;;;;;;;23.50;14.50;;;;;;;0.17;72.43;99959.34;218330;1260;140135;-68
2023/04/27 02:17:57;;;;;;;19.70;13.00;;;;;;;0.08;72.32;99963.55;218759;1259;140122;-69
2023/04/27 02:23:01;;;;;;;26.90;16.00;;;;;;;0.02;72.81;99962.61;218724;1259;139852;-69
2023/04/27 02:28:04;;;;;;;28.90;14.00;;;;;;;-0.05;72.60;99962.00;217732;1260;139753;-67
2023/04/27 02:33:07;;;;;;;28.10;16.40;;;;;;;-0.14;72.90;99965.18;219467;1257;140483;-68
2023/04/27 02:38:12;;;;;;;26.10;16.60;;;;;;;-0.17;73.13;99968.71;218231;1257;140178;-67
2023/04/27 02:43:16;;;;;;;28.50;15.80;;;;;;;-0.21;73.44;99968.77;217848;1260;141031;-67
2023/04/27 02:48:19;;;;;;;30.30;17.10;;;;;;;-0.27;73.35;99965.08;217856;1260;140038;-66
2023/04/27 02:53:23;;;;;;;24.50;15.30;;;;;;;-0.38;73.31;99965.59;218116;1260;139973;-66
2023/04/27 02:58:26;;;;;;;29.70;15.70;;;;;;;-0.48;73.34;99968.58;218384;1260;141383;-67
2023/04/27 03:03:28;;;;;;;28.10;15.30;;;;;;;-0.57;73.47;99967.45;217760;1258;139955;-67
2023/04/27 03:08:31;;;;;;;28.60;15.50;;;;;;;-0.63;73.63;99972.38;218293;1260;141222;-67
2023/04/27 03:13:40;;;;;;;28.50;13.40;;;;;;;-0.68;73.76;99979.59;218235;1260;140693;-67
2023/04/27 03:18:44;;;;;;;24.50;15.00;;;;;;;-0.71;73.87;99985.11;217808;1260;139923;-68
2023/04/27 03:23:46;;;;;;;26.50;15.10;;;;;;;-0.71;74.28;99989.30;218747;1257;141197;-67
2023/04/27 03:28:49;;;;;;;25.10;13.40;;;;;;;-0.75;74.28;99983.00;217959;1257;140090;-66
2023/04/27 03:33:51;;;;;;;23.70;13.80;;;;;;;-0.77;74.28;99984.00;217768;1256;140544;-67
2023/04/27 03:38:54;;;;;;;27.50;15.40;;;;;;;-0.71;74.72;99990.81;220384;1256;140852;-68
2023/04/27 03:43:57;;;;;;;26.50;13.00;;;;;;;-0.53;74.70;99988.85;220518;1256;140275;-67
2023/04/27 03:49:00;;;;;;;23.80;13.60;;;;;;;-0.23;74.50;99987.25;220605;1257;140865;-70
2023/04/27 03:54:03;;;;;;;22.10;12.70;;;;;;;0.22;73.83;99993.42;218135;1257;140170;-69
2023/04/27 03:59:06;;;;;;;17.40;10.40;;;;;;;0.88;72.83;99991.27;219146;1257;140404;-69
2023/04/27 04:04:10;;;;;;;19.50;10.80;;;;;;;1.92;72.12;99996.27;219412;1260;141048;-69
2023/04/27 04:09:14;;;;;;;17.70;12.20;;;;;;;2.36;71.42;100000.59;217784;1257;140165;-69
2023/04/27 04:14:18;;;;;;;20.70;12.50;;;;;;;2.06;71.32;100003.75;218563;1257;140013;-67
2023/04/27 04:19:21;;;;;;;34.40;21.80;;;;;;;1.85;71.40;100010.35;218282;1256;140594;-68
2023/04/27 04:24:24;;;;;;;21.40;17.40;;;;;;;1.79;71.70;100018.95;218154;1260;140245;-66
2023/04/27 04:29:27;;;;;;;31.90;16.50;;;;;;;1.73;72.11;100026.17;218237;1259;140696;-67
2023/04/27 04:34:32;;;;;;;19.90;13.90;;;;;;;1.86;72.68;100033.08;217832;1260;140680;-67
2023/04/27 04:39:35;;;;;;;15.70;12.10;;;;;;;1.96;72.41;100032.60;218444;1260;140120;-67
2023/04/27 04:44:37;;;;;;;24.60;13.50;;;;;;;2.07;72.41;100032.45;218140;1260;140043;-67
2023/04/27 04:49:40;;;;;;;20.50;12.40;;;;;;;2.23;72.35;100037.91;218092;1259;140567;-68
2023/04/27 04:54:41;;;;;;;17.90;10.80;;;;;;;2.45;73.08;100038.92;218305;1260;140714;-68
2023/04/27 04:59:45;;;;;;;18.60;10.10;;;;;;;2.73;72.74;100034.14;217551;1258;140217;-67
2023/04/27 05:04:47;;;;;;;21.80;13.10;;;;;;;2.97;72.78;100032.20;217734;1257;140346;-67
2023/04/27 05:09:50;;;;;;;22.00;13.50;;;;;;;3.12;72.70;100033.44;218506;1257;140272;-68
2023/04/27 05:14:54;;;;;;;20.30;12.60;;;;;;;3.28;72.35;100038.83;217773;1260;140876;-67
2023/04/27 05:19:58;;;;;;;21.80;12.80;;;;;;;3.46;72.32;100039.65;218954;1257;140145;-67
2023/04/27 05:25:02;;;;;;;15.30;10.20;;;;;;;3.68;72.22;100046.00;218299;1257;140017;-71
2023/04/27 05:30:06;;;;;;;23.20;12.30;;;;;;;4.42;71.40;100052.30;218055;1257;140559;-69
2023/04/27 05:35:10;;;;;;;13.90;9.50;;;;;;;5.89;70.40;100051.73;218848;1257;140001;-65
2023/04/27 05:40:14;;;;;;;18.30;10.20;;;;;;;6.61;69.24;100055.85;219013;1257;140412;-64
2023/04/27 05:45:18;;;;;;;13.20;9.80;;;;;;;6.79;68.64;100056.92;220275;1257;140721;-69
2023/04/27 05:50:20;;;;;;;20.00;12.30;;;;;;;7.43;67.49;100057.20;220345;1256;140814;-74
2023/04/27 05:55:23;;;;;;;18.60;11.50;;;;;;;7.63;66.70;100066.51;219797;1257;140745;-70
2023/04/27 06:00:27;;;;;;;18.20;10.70;;;;;;;7.62;66.64;100070.47;217770;1256;140143;-69
2023/04/27 06:05:29;;;;;;;19.60;10.50;;;;;;;7.91;65.88;100067.14;218406;1257;140225;-68
2023/04/27 06:10:31;;;;;;;14.50;8.00;;;;;;;7.92;65.89;100065.23;217629;1257;140308;-71
2023/04/27 06:15:34;;;;;;;12.40;9.00;;;;;;;7.98;65.99;100071.64;218915;1256;140040;-72
2023/04/27 06:20:36;;;;;;;12.80;7.90;;;;;;;8.27;65.64;100071.81;217790;1258;139970;-73
2023/04/27 06:25:40;;;;;;;12.40;9.40;;;;;;;8.66;65.01;100071.35;217876;1260;141009;-68
2023/04/27 06:30:43;;;;;;;15.90;11.30;;;;;;;9.05;64.64;100078.61;218148;1258;140077;-69
2023/04/27 06:35:47;;;;;;;12.70;10.40;;;;;;;9.27;63.84;100078.50;217713;1259;139782;-70
2023/04/27 06:40:51;;;;;;;10.90;9.00;;;;;;;9.28;63.57;100083.09;218132;1259;139968;-69
2023/04/27 06:45:54;;;;;;;15.90;9.30;;;;;;;9.38;63.35;100080.98;218287;1256;140038;-73
2023/04/27 06:50:58;;;;;;;15.30;10.90;;;;;;;9.68;62.96;100081.04;217810;1257;140452;-73
2023/04/27 06:56:02;;;;;;;10.40;7.20;;;;;;;9.98;62.64;100082.73;217958;1256;140536;-69
2023/04/27 07:01:05;;;;;;;12.00;9.50;;;;;;;10.20;62.12;100089.05;218152;1256;210822;-68
2023/04/27 07:06:08;;;;;;;16.30;10.70;;;;;;;10.10;61.93;100090.12;217688;1259;140115;-70
2023/04/27 07:11:12;;;;;;;15.50;9.40;;;;;;;9.87;61.81;100086.56;218599;1255;140352;-70
2023/04/27 07:16:15;;;;;;;14.20;9.00;;;;;;;9.83;61.72;100089.15;217957;1256;139849;-72
2023/04/27 07:21:18;;;;;;;17.80;10.50;;;;;;;9.86;61.49;100089.48;217608;1257;139906;-73
2023/04/27 07:26:23;;;;;;;16.10;7.50;;;;;;;9.98;61.67;100096.36;217797;1260;209897;-71
2023/04/27 07:31:26;;;;;;;10.40;8.10;;;;;;;10.32;61.52;100100.67;219915;1257;139775;-72
2023/04/27 07:36:30;;;;;;;7.80;5.70;;;;;;;10.80;61.14;100102.55;217658;1257;140122;-69
2023/04/27 07:41:34;;;;;;;10.90;7.50;;;;;;;11.26;60.85;100098.74;218405;1256;139780;-70
2023/04/27 07:46:37;;;;;;;7.90;5.70;;;;;;;11.66;59.90;100105.52;220518;1256;140829;-70
2023/04/27 07:51:42;;;;;;;8.90;5.50;;;;;;;12.18;59.96;100097.15;218959;1256;140899;-69
2023/04/27 07:56:45;;;;;;;10.10;6.30;;;;;;;12.72;59.20;100098.15;217745;1257;139845;-72
2023/04/27 08:01:47;;;;;;;7.30;5.30;;;;;;;12.98;58.59;100104.59;218997;1257;140064;-69
2023/04/27 08:06:51;;;;;;;6.70;5.00;;;;;;;13.28;57.95;100101.23;217932;1259;139399;-68
2023/04/27 08:11:54;;;;;;;8.20;6.10;;;;;;;13.56;57.18;100097.43;217724;1259;139666;-68
2023/04/27 08:16:57;;;;;;;6.30;4.50;;;;;;;13.61;56.58;100098.26;218329;1256;140373;-68
2023/04/27 08:22:00;;;;;;;6.50;4.40;;;;;;;13.86;56.17;100092.86;217692;1257;139569;-70
2023/04/27 08:27:05;;;;;;;5.70;3.70;;;;;;;13.53;54.41;100101.99;217737;1257;140600;-69
2023/04/27 08:32:09;;;;;;;4.50;3.00;;;;;;;13.34;54.46;100101.42;217772;1256;140461;-73
2023/04/27 08:37:12;;;;;;;5.60;3.60;;;;;;;13.66;54.48;100095.16;217450;1260;140472;-72
2023/04/27 08:42:15;;;;;;;7.50;3.50;;;;;;;14.15;54.38;100098.66;217764;1256;141992;-70
2023/04/27 08:47:19;;;;;;;4.10;3.50;;;;;;;14.42;53.61;100096.00;217631;1260;139799;-72
2023/04/27 08:52:45;;;;;;;13.90;4.70;;;;;;;14.44;52.73;100099.98;217609;1257;139409;-71
2023/04/27 08:57:56;;;;;;;4.70;4.20;;;;;;;14.63;52.54;100099.69;217622;1256;140547;-71
2023/04/27 09:03:02;;;;;;;7.60;3.80;;;;;;;14.61;52.18;100095.86;217647;1256;140157;-72
2023/04/27 09:08:07;;;;;;;8.60;5.10;;;;;;;14.59;51.71;100092.66;217809;1257;232726;-71
2023/04/27 09:13:11;;;;;;;4.00;3.30;;;;;;;14.49;51.45;100095.97;217590;1256;140163;-70
2023/04/27 09:18:18;;;;;;;5.30;4.30;;;;;;;14.31;50.89;100102.61;219149;1256;140066;-72
2023/04/27 09:23:27;;;;;;;;;;;;;;;13.87;50.09;100097.55;219044;1256;139742;-75
2023/04/27 09:28:31;;;;;;;5.50;3.40;;;;;;;14.05;50.79;100089.64;218246;1256;125864;-74
2023/04/27 09:33:38;;;;;;;4.80;3.90;;;;;;;14.13;50.29;100087.37;217467;1260;139604;-70
2023/04/27 09:38:39;;;;;;;;;;;;;;;13.71;49.53;100092.17;217366;1260;143128;-71
2023/04/27 09:43:44;;;;;;;8.00;3.80;;;;;;;13.19;49.19;100092.45;218155;1257;126002;-74
2023/04/27 09:48:49;;;;;;;4.60;3.10;;;;;;;12.75;49.42;100096.38;218031;1257;139562;-74
2023/04/27 09:53:57;;;;;;;6.60;3.00;;;;;;;12.43;49.37;100098.67;218499;1257;140094;-71
2023/04/27 09:59:52;;;;;;;6.30;2.40;;;;;;;12.21;49.17;100104.33;218390;1257;139071;-74
2023/04/27 10:05:16;;;;;;;2.20;2.00;;;;;;;12.11;49.03;100104.70;217748;1256;140412;-72
2023/04/27 10:10:19;;;;;;;2.00;1.80;;;;;;;12.04;48.85;100102.68;217788;1256;140766;-74
2023/04/27 10:15:27;;;;;;;3.40;1.60;;;;;;;11.87;48.56;100100.09;217856;1257;140089;-73
2023/04/27 10:20:31;;;;;;;3.10;1.40;;;;;;;11.85;48.79;100099.23;217723;1257;139431;-73
2023/04/27 10:25:39;;;;;;;3.10;1.90;;;;;;;11.90;48.45;100097.48;218702;1257;140806;-72
2023/04/27 10:30:46;;;;;;;3.00;1.80;;;;;;;11.98;47.88;100097.04;217959;1257;139252;-69
2023/04/27 10:35:59;;;;;;;1.90;1.50;;;;;;;12.04;47.83;100101.98;217584;1259;140648;-68
2023/04/27 10:41:04;;;;;;;2.30;1.50;;;;;;;12.07;47.54;100096.02;218302;1256;140210;-69
2023/04/27 10:46:15;;;;;;;3.60;1.60;;;;;;;11.93;47.28;100099.78;217719;1257;140464;-68
2023/04/27 10:51:18;;;;;;;1.30;1.10;;;;;;;11.78;47.12;100100.17;218898;1259;139666;-71
2023/04/27 10:56:22;;;;;;;4.60;1.60;;;;;;;11.54;47.00;100110.10;217688;1257;140209;-68
2023/04/27 11:01:28;;;;;;;1.40;1.30;;;;;;;11.38;46.98;100114.47;218010;1256;140606;-71
2023/04/27 11:06:32;;;;;;;1.90;1.70;;;;;;;11.46;47.22;100118.08;219523;1256;140212;-69
2023/04/27 11:11:35;;;;;;;4.00;2.20;;;;;;;11.68;47.25;100114.33;218330;1256;141577;-69
2023/04/27 11:16:46;;;;;;;3.00;1.90;;;;;;;11.87;46.93;100117.02;217587;1257;139264;-78
2023/04/27 11:21:49;;;;;;;2.30;2.10;;;;;;;11.83;46.70;100119.60;219221;1259;140571;-67
2023/04/27 11:26:52;;;;;;;1.40;1.30;;;;;;;11.68;46.59;100130.61;220548;1255;140038;-72
2023/04/27 11:31:55;;;;;;;4.90;1.50;;;;;;;11.51;46.50;100134.60;218051;1257;139130;-75
2023/04/27 11:37:04;;;;;;;2.40;2.10;;;;;;;11.36;46.57;100133.84;220487;1256;140114;-69
2023/04/27 11:42:28;;;;;;;4.40;2.60;;;;;;;11.21;46.67;100134.02;218386;1257;139430;-69
2023/04/27 11:47:35;;;;;;;4.00;2.50;;;;;;;11.11;46.64;100132.64;218500;1259;140993;-76
2023/04/27 11:52:41;;;;;;;1.20;1.10;;;;;;;11.06;46.96;100136.98;218733;1255;140945;-67
2023/04/27 11:57:44;;;;;;;2.60;2.40;;;;;;;11.07;47.11;100136.43;217861;1257;140150;-73
2023/04/27 12:02:46;;;;;;;6.50;2.70;;;;;;;11.15;47.29;100141.44;217579;1257;140377;-70
2023/04/27 12:07:51;;;;;;;5.30;2.60;;;;;;;11.05;47.35;100151.32;217853;1255;139567;-67
2023/04/27 12:12:54;;;;;;;4.60;3.20;;;;;;;10.77;47.57;100154.42;217580;1255;139488;-67
2023/04/27 12:17:57;;;;;;;3.10;2.60;;;;;;;10.57;48.19;100156.33;218193;1256;139825;-72
2023/04/27 12:23:01;;;;;;;2.40;1.40;;;;;;;10.40;48.61;100157.27;217598;1257;140254;-69
2023/04/27 12:28:03;;;;;;;2.00;1.60;;;;;;;10.32;48.37;100150.61;217615;1259;139308;-72
2023/04/27 12:33:09;;;;;;;1.70;1.60;;;;;;;10.26;48.59;100148.05;217533;1259;139604;-70
2023/04/27 12:38:12;;;;;;;2.50;1.30;;;;;;;10.24;48.71;100145.04;217759;1257;139522;-80
2023/04/27 12:43:15;;;;;;;2.00;1.90;;;;;;;10.28;49.13;100146.38;218318;1256;139967;-70
2023/04/27 12:48:21;;;;;;;2.20;2.10;;;;;;;10.27;48.94;100144.72;218235;1256;139303;-69
2023/04/27 12:53:30;;;;;;;2.30;2.10;;;;;;;10.27;49.04;100148.32;217961;1257;140017;-69
2023/04/27 12:58:32;;;;;;;3.60;3.30;;;;;;;10.41;49.23;100145.80;217567;1256;139104;-72
2023/04/27 13:03:34;;;;;;;21.20;9.70;;;;;;;10.57;49.35;100140.54;218097;1256;140682;-69
2023/04/27 13:08:39;;;;;;;3.70;2.80;;;;;;;10.76;49.10;100142.62;219478;1256;140292;-70
2023/04/27 13:13:44;;;;;;;2.30;1.80;;;;;;;11.08;48.99;100141.02;219769;1257;139692;-71
2023/04/27 13:18:48;;;;;;;2.50;2.10;;;;;;;11.73;48.97;100135.61;220012;1256;139672;-69
2023/04/27 13:23:53;;;;;;;1.50;1.40;;;;;;;12.19;47.71;100132.35;217666;1257;139493;-68
2023/04/27 13:28:57;;;;;;;1.70;1.60;;;;;;;12.39;47.02;100129.12;219496;1256;141195;-69
2023/04/27 13:34:00;;;;;;;2.20;2.00;;;;;;;12.38;46.61;100133.75;220474;1255;139978;-69
2023/04/27 13:39:05;;;;;;;2.60;1.90;;;;;;;12.35;45.97;100130.36;220122;1256;140612;-69
2023/04/27 13:44:08;;;;;;;2.90;2.30;;;;;;;12.23;45.79;100132.41;219798;1257;140199;-69
2023/04/27 13:49:11;;;;;;;2.00;1.90;;;;;;;12.01;45.76;100134.30;218392;1257;140372;-68
2023/04/27 13:54:15;;;;;;;3.80;2.20;;;;;;;11.78;45.72;100141.48;218823;1256;139089;-68
2023/04/27 13:59:20;;;;;;;3.30;1.90;;;;;;;11.47;45.96;100155.10;219066;1256;140178;-69
2023/04/27 14:04:24;;;;;;;4.70;2.30;;;;;;;11.20;46.21;100164.56;217918;1260;139508;-70
2023/04/27 14:09:28;;;;;;;3.30;2.30;;;;;;;10.95;47.21;100167.77;219066;1257;140410;-69
2023/04/27 14:14:31;;;;;;;2.10;2.00;;;;;;;10.70;47.76;100164.64;218413;1257;140063;-70
2023/04/27 14:19:34;;;;;;;3.50;2.20;;;;;;;10.58;48.37;100169.95;217709;1259;139502;-69
2023/04/27 14:24:37;;;;;;;4.70;2.20;;;;;;;10.51;48.70;100164.67;217552;1257;139734;-69
2023/04/27 14:29:38;;;;;;;4.90;2.80;;;;;;;10.50;48.96;100164.45;217785;1257;139794;-68
2023/04/27 14:34:40;;;;;;;2.00;1.90;;;;;;;10.52;49.31;100165.58;217813;1257;139304;-67
2023/04/27 14:39:45;;;;;;;2.70;2.50;;;;;;;10.49;49.11;100167.98;217635;1257;139815;-68
2023/04/27 14:44:47;;;;;;;3.30;2.10;;;;;;;10.46;49.08;100169.66;217524;1256;139346;-68
2023/04/27 14:49:51;;;;;;;6.30;2.90;;;;;;;10.46;49.29;100168.70;217514;1257;139807;-67
2023/04/27 14:54:54;;;;;;;5.10;2.20;;;;;;;10.39;49.43;100171.06;217453;1260;140385;-68
2023/04/27 14:59:58;;;;;;;5.10;3.00;;;;;;;10.30;49.68;100167.67;218375;1257;139447;-66
2023/04/27 15:05:01;;;;;;;2.90;2.30;;;;;;;10.20;49.68;100169.11;217776;1257;139800;-67
2023/04/27 15:10:05;;;;;;;8.40;2.20;;;;;;;10.11;50.12;100172.89;218126;1259;139277;-67
2023/04/27 15:15:08;;;;;;;3.70;2.20;;;;;;;10.03;50.23;100174.29;218217;1259;139254;-70
2023/04/27 15:20:13;;;;;;;3.00;2.00;;;;;;;9.97;50.36;100176.36;217720;1257;139467;-69
2023/04/27 15:25:16;;;;;;;4.40;2.90;;;;;;;9.89;50.43;100184.25;220417;1256;139991;-70
2023/04/27 15:30:18;;;;;;;3.10;2.10;;;;;;;9.88;50.29;100189.95;220325;1257;139845;-72
2023/04/27 15:35:21;;;;;;;2.40;2.20;;;;;;;9.91;50.10;100191.11;219487;1256;139460;-70
2023/04/27 15:40:23;;;;;;;1.90;1.80;;;;;;;9.98;49.96;100192.50;219712;1256;139822;-71
2023/04/27 15:45:27;;;;;;;3.20;2.90;;;;;;;10.10;50.17;100186.17;217763;1256;139681;-70
2023/04/27 15:50:30;;;;;;;3.50;2.80;;;;;;;10.25;49.87;100180.41;219072;1257;139382;-71
2023/04/27 15:55:32;;;;;;;4.10;2.20;;;;;;;10.25;49.59;100180.23;217995;1259;140187;-72
2023/04/27 16:00:36;;;;;;;2.00;1.80;;;;;;;10.20;49.18;100178.23;217659;1257;139053;-70
2023/04/27 16:05:40;;;;;;;4.40;2.80;;;;;;;10.19;49.42;100173.42;217918;1257;139491;-71
2023/04/27 16:10:43;;;;;;;6.10;2.50;;;;;;;10.21;49.50;100180.98;217875;1257;139744;-72
2023/04/27 16:15:45;;;;;;;3.00;2.50;;;;;;;10.25;49.34;100172.52;218300;1257;139597;-69
2023/04/27 16:20:50;;;;;;;4.60;3.10;;;;;;;10.27;49.84;100177.39;217799;1257;140318;-69
2023/04/27 16:25:53;;;;;;;4.00;3.20;;;;;;;10.15;50.28;100180.16;218268;1257;139261;-73
2023/04/27 16:30:57;;;;;;;7.40;4.60;;;;;;;9.91;50.32;100186.45;217654;1257;139390;-67
2023/04/27 16:35:59;;;;;;;6.10;3.40;;;;;;;9.76;50.81;100194.23;217758;1257;139353;-68
2023/04/27 16:41:01;;;;;;;6.90;3.40;;;;;;;9.76;51.34;100193.77;217448;1256;139222;-71
2023/04/27 16:46:05;;;;;;;5.20;4.10;;;;;;;9.68;51.55;100191.90;217706;1257;139960;-68
2023/04/27 16:51:10;;;;;;;4.10;2.60;;;;;;;9.57;51.84;100195.01;218101;1260;140992;-71
2023/04/27 16:56:14;;;;;;;7.50;3.60;;;;;;;9.40;52.02;100196.20;217779;1260;140032;-71
2023/04/27 17:01:17;;;;;;;4.50;3.00;;;;;;;9.23;52.25;100196.03;217811;1256;143141;-71
2023/04/27 17:06:20;;;;;;;7.50;3.40;;;;;;;9.07;52.80;100199.77;219601;1257;139194;-70
2023/04/27 17:11:24;;;;;;;8.20;2.90;;;;;;;9.00;53.04;100200.10;218891;1257;233517;-69
2023/04/27 17:16:28;;;;;;;7.60;4.30;;;;;;;8.94;53.26;100199.48;220505;1257;140004;-70
2023/04/27 17:21:32;;;;;;;3.70;2.60;;;;;;;8.94;53.84;100204.71;219412;1259;139838;-69
2023/04/27 17:26:36;;;;;;;6.60;2.80;;;;;;;8.87;54.30;100204.95;220008;1258;140865;-67
2023/04/27 17:31:41;;;;;;;3.60;3.30;;;;;;;8.78;55.05;100203.52;220513;1259;139683;-70
2023/04/27 17:36:51;;;;;;;7.60;3.70;;;;;;;8.73;55.12;100206.13;220206;1257;139464;-67
2023/04/27 17:42:01;;;;;;;4.90;3.50;;;;;;;8.70;55.39;100207.97;217715;1259;139953;-68
2023/04/27 17:47:04;;;;;;;4.60;3.60;;;;;;;8.65;55.30;100205.70;218739;1257;140172;-68
2023/04/27 17:52:16;;;;;;;5.80;3.70;;;;;;;8.59;55.67;100211.89;217730;1257;139013;-67
2023/04/27 17:57:26;;;;;;;7.30;4.60;;;;;;;8.51;55.95;100215.83;218498;1257;139101;-68
2023/04/27 18:02:36;;;;;;;6.90;3.90;;;;;;;8.43;56.30;100214.90;217742;1259;140013;-67
2023/04/27 18:07:45;;;;;;;5.70;5.20;;;;;;;8.32;56.76;100220.30;218552;1256;140919;-67
2023/04/27 18:12:55;;;;;;;5.00;3.20;;;;;;;8.18;57.30;100226.33;217609;1257;139764;-67
2023/04/27 18:17:58;;;;;;;4.80;3.80;;;;;;;7.98;57.69;100232.36;218413;1257;139553;-67
2023/04/27 18:23:02;;;;;;;7.60;3.50;;;;;;;7.76;57.96;100241.27;218274;1257;139409;-69
2023/04/27 18:28:05;;;;;;;6.10;3.00;;;;;;;7.59;58.65;100248.57;218027;1257;139047;-70
2023/04/27 18:33:08;;;;;;;3.90;3.50;;;;;;;7.42;59.34;100250.61;217912;1259;139397;-69
2023/04/27 18:38:11;;;;;;;15.40;4.20;;;;;;;7.21;59.45;100250.95;219063;1257;139097;-67
2023/04/27 18:43:14;;;;;;;6.70;3.00;;;;;;;6.98;59.93;100254.05;218445;1256;139361;-67
2023/04/27 18:48:18;;;;;;;3.80;3.20;;;;;;;6.81;59.35;100254.84;217682;1257;138876;-68
2023/04/27 18:53:23;;;;;;;6.20;3.70;;;;;;;6.63;60.19;100257.17;219197;1257;139214;-66
2023/04/27 18:58:26;;;;;;;4.70;2.90;;;;;;;6.42;60.39;100260.80;218293;1259;139187;-69
2023/04/27 19:03:28;;;;;;;3.70;2.60;;;;;;;6.20;61.01;100265.87;218721;1255;140113;-75
2023/04/27 19:08:32;;;;;;;4.20;2.60;;;;;;;6.00;61.44;100259.75;218274;1259;140399;-68
2023/04/27 19:13:36;;;;;;;8.00;3.70;;;;;;;5.74;61.63;100262.96;218104;1257;140017;-70
2023/04/27 19:18:40;;;;;;;3.20;2.90;;;;;;;5.56;62.20;100261.37;220238;1256;140021;-70
2023/04/27 19:23:44;;;;;;;4.20;2.90;;;;;;;5.37;62.58;100264.08;219675;1255;139973;-68
2023/04/27 19:28:47;;;;;;;4.40;3.70;;;;;;;5.22;62.89;100262.62;220341;1259;140019;-68
2023/04/27 19:33:50;;;;;;;5.50;4.30;;;;;;;5.09;63.13;100263.79;219345;1259;139867;-68
2023/04/27 19:38:58;;;;;;;4.20;3.50;;;;;;;5.00;63.47;100266.31;218741;1257;139873;-69
2023/04/27 19:44:01;;;;;;;12.10;5.30;;;;;;;4.93;63.61;100269.47;218195;1258;139497;-67
2023/04/27 19:49:03;;;;;;;6.60;4.90;;;;;;;4.86;63.91;100271.20;217716;1257;142365;-69
2023/04/27 19:54:07;;;;;;;11.20;7.00;;;;;;;4.76;64.18;100275.05;218641;1257;139560;-67
2023/04/27 19:59:11;;;;;;;8.60;6.00;;;;;;;4.66;64.31;100274.95;217711;1259;140856;-66
2023/04/27 20:04:16;;;;;;;9.10;5.00;;;;;;;4.63;64.97;100278.75;218057;1257;139788;-66
2023/04/27 20:09:21;;;;;;;10.00;5.50;;;;;;;4.59;65.17;100284.13;217862;1261;139842;-67
2023/04/27 20:14:27;;;;;;;13.60;9.70;;;;;;;4.53;65.47;100286.44;218036;1257;140161;-66
2023/04/27 20:19:32;;;;;;;12.70;8.10;;;;;;;4.45;65.75;100285.44;218174;1260;140144;-66
2023/04/27 20:24:37;;;;;;;9.30;6.20;;;;;;;4.46;66.16;100287.60;217837;1260;139710;-66
2023/04/27 20:29:43;;;;;;;12.20;6.00;;;;;;;4.45;66.33;100293.52;218860;1257;141309;-68
2023/04/27 20:34:47;;;;;;;10.80;7.00;;;;;;;4.42;66.37;100295.98;217728;1257;140519;-66
2023/04/27 20:39:52;;;;;;;8.40;5.30;;;;;;;4.39;66.63;100297.04;217781;1259;140400;-66
2023/04/27 20:44:57;;;;;;;17.50;9.10;;;;;;;4.36;66.75;100298.48;217871;1258;140043;-77
2023/04/27 20:50:00;;;;;;;22.30;9.80;;;;;;;4.30;66.96;100302.31;218417;1258;140185;-68
2023/04/27 20:55:06;;;;;;;18.70;12.10;;;;;;;4.21;66.97;100301.52;218486;1259;140535;-67
2023/04/27 21:00:14;;;;;;;20.70;10.90;;;;;;;4.16;67.51;100301.86;217325;1255;140853;-68
2023/04/27 21:05:17;;;;;;;25.40;13.20;;;;;;;4.15;67.77;100305.38;220330;1258;140094;-69
2023/04/27 21:10:20;;;;;;;16.30;9.30;;;;;;;4.14;67.82;100305.70;220079;1256;141174;-67
2023/04/27 21:15:23;;;;;;;21.20;9.90;;;;;;;4.15;67.86;100305.16;220500;1257;141473;-67
2023/04/27 21:20:26;;;;;;;23.90;10.60;;;;;;;4.17;68.08;100307.19;218487;1257;141588;-67
2023/04/27 21:25:30;;;;;;;17.70;11.60;;;;;;;4.20;68.19;100304.46;220277;1257;141126;-68
2023/04/27 21:30:32;;;;;;;15.20;10.00;;;;;;;4.20;68.25;100302.98;220434;1260;140954;-67
2023/04/27 21:35:36;;;;;;;12.50;8.60;;;;;;;4.21;68.33;100304.16;219712;1257;141108;-67
2023/04/27 21:40:41;;;;;;;15.10;9.30;;;;;;;4.19;68.32;100303.35;218872;1260;140543;-68
2023/04/27 21:45:46;;;;;;;14.40;11.30;;;;;;;4.15;68.34;100308.77;217862;1260;140206;-67
2023/04/27 21:50:49;;;;;;;12.50;9.40;;;;;;;4.10;68.56;100309.27;217696;1260;141061;-66
2023/04/27 21:55:55;;;;;;;18.10;12.10;;;;;;;4.03;68.78;100313.23;218159;1257;140922;-65
2023/04/27 22:01:00;;;;;;;18.80;12.10;;;;;;;3.97;69.07;100315.67;217574;1260;140598;-66
2023/04/27 22:06:03;;;;;;;22.70;14.70;;;;;;;3.92;69.28;100312.96;218677;1260;140148;-67
2023/04/27 22:11:07;;;;;;;16.20;11.20;;;;;;;3.84;69.32;100314.92;217832;1260;141163;-66
2023/04/27 22:16:10;;;;;;;24.50;15.50;;;;;;;3.77;69.52;100315.56;218493;1258;141333;-68
2023/04/27 22:21:15;;;;;;;25.20;14.20;;;;;;;3.69;69.55;100315.23;217695;1260;140247;-69
2023/04/27 22:26:18;;;;;;;22.80;14.00;;;;;;;3.61;69.53;100319.52;217765;1257;141110;-66
2023/04/27 22:31:21;;;;;;;18.00;10.60;;;;;;;3.47;69.48;100322.86;218557;1257;139970;-66
2023/04/27 22:36:23;;;;;;;21.30;12.50;;;;;;;3.33;69.88;100322.59;217850;1260;140848;-66
2023/04/27 22:41:26;;;;;;;20.10;11.90;;;;;;;3.24;70.02;100322.41;218805;1257;141110;-67
2023/04/27 22:46:29;;;;;;;27.00;14.00;;;;;;;3.13;70.07;100319.95;217934;1260;140164;-67
2023/04/27 22:51:35;;;;;;;21.80;12.50;;;;;;;2.99;70.10;100318.35;217933;1260;140563;-67
2023/04/27 22:56:38;;;;;;;23.70;11.80;;;;;;;2.84;70.26;100316.73;219408;1257;141341;-67
2023/04/27 23:01:41;;;;;;;22.80;13.90;;;;;;;2.72;70.64;100318.95;220116;1256;140656;-69